sensor_id;sensor_type;location;lat;lon;timestamp;pressure;altitude;pressure_sealevel;temperature;humidity
77216;BME280;66210;53.282;9.864;2023-12-20T00:01:06;100379.22;;;5.72;100.00
77216;BME280;66210;53.282;9.864;2023-12-20T00:03:33;100394.34;;;5.72;100.00
77216;BME280;66210;53.282;9.864;2023-12-20T00:06:08;100403.47;;;5.70;100.00
77216;BME280;66210;53.282;9.864;2023-12-20T00:08:36;100402.22;;;5.63;100.00
77216;BME280;66210;53.282;9.864;2023-12-20T00:11:02;100404.75;;;5.63;100.00
77216;BME280;66210;53.282;9.864;2023-12-20T00:13:29;100404.53;;;5.60;100.00
77216;BME280;66210;53.282;9.864;2023-12-20T00:15:56;100406.19;;;5.59;100.00
77216;BME280;66210;53.282;9.864;2023-12-20T00:18:23;100399.06;;;5.52;100.00
77216;BME280;66210;53.282;9.864;2023-12-20T00:20:50;100397.28;;;5.51;100.00
77216;BME280;66210;53.282;9.864;2023-12-20T00:23:17;100392.25;;;5.51;100.00
77216;BME280;66210;53.282;9.864;2023-12-20T00:25:44;100390.53;;;5.50;100.00
77216;BME280;66210;53.282;9.864;2023-12-20T00:28:10;100387.84;;;5.47;100.00
77216;BME280;66210;53.282;9.864;2023-12-20T00:30:37;100380.84;;;5.43;100.00
77216;BME280;66210;53.282;9.864;2023-12-20T00:33:04;100378.06;;;5.38;100.00
77216;BME280;66210;53.282;9.864;2023-12-20T00:35:31;100381.44;;;5.39;100.00
77216;BME280;66210;53.282;9.864;2023-12-20T00:37:58;100362.78;;;5.22;100.00
77216;BME280;66210;53.282;9.864;2023-12-20T00:40:25;100391.03;;;5.31;100.00
77216;BME280;66210;53.282;9.864;2023-12-20T00:42:52;100386.50;;;5.26;100.00
77216;BME280;66210;53.282;9.864;2023-12-20T00:45:19;100392.03;;;5.20;100.00
77216;BME280;66210;53.282;9.864;2023-12-20T00:47:46;100388.56;;;5.18;100.00
77216;BME280;66210;53.282;9.864;2023-12-20T00:50:13;100395.06;;;5.14;100.00
77216;BME280;66210;53.282;9.864;2023-12-20T00:52:40;100387.03;;;5.07;100.00
77216;BME280;66210;53.282;9.864;2023-12-20T00:55:07;100388.75;;;5.08;100.00
77216;BME280;66210;53.282;9.864;2023-12-20T00:57:34;100386.72;;;5.02;100.00
77216;BME280;66210;53.282;9.864;2023-12-20T01:00:02;100378.88;;;4.97;100.00
77216;BME280;66210;53.282;9.864;2023-12-20T01:02:29;100368.63;;;4.94;100.00
77216;BME280;66210;53.282;9.864;2023-12-20T01:04:56;100375.19;;;5.06;100.00
77216;BME280;66210;53.282;9.864;2023-12-20T01:07:22;100364.06;;;5.02;100.00
77216;BME280;66210;53.282;9.864;2023-12-20T01:09:49;100367.75;;;5.07;100.00
77216;BME280;66210;53.282;9.864;2023-12-20T01:12:16;100345.41;;;4.98;100.00
77216;BME280;66210;53.282;9.864;2023-12-20T01:14:43;100352.38;;;5.03;100.00
77216;BME280;66210;53.282;9.864;2023-12-20T01:17:10;100301.38;;;4.65;100.00
77216;BME280;66210;53.282;9.864;2023-12-20T01:19:36;100352.38;;;5.03;100.00
77216;BME280;66210;53.282;9.864;2023-12-20T01:22:04;100346.75;;;4.93;100.00
77216;BME280;66210;53.282;9.864;2023-12-20T01:24:30;100345.59;;;4.88;100.00
77216;BME280;66210;53.282;9.864;2023-12-20T01:26:57;100352.44;;;4.91;100.00
77216;BME280;66210;53.282;9.864;2023-12-20T01:29:24;100354.97;;;4.91;100.00
77216;BME280;66210;53.282;9.864;2023-12-20T01:31:51;100346.16;;;4.84;100.00
77216;BME280;66210;53.282;9.864;2023-12-20T01:34:18;100350.25;;;4.82;100.00
77216;BME280;66210;53.282;9.864;2023-12-20T01:36:45;100336.44;;;4.75;100.00
77216;BME280;66210;53.282;9.864;2023-12-20T01:39:12;100353.81;;;4.86;100.00
77216;BME280;66210;53.282;9.864;2023-12-20T01:41:53;100326.34;;;4.75;100.00
77216;BME280;66210;53.282;9.864;2023-12-20T01:44:20;100348.78;;;4.86;100.00
77216;BME280;66210;53.282;9.864;2023-12-20T01:46:47;100349.56;;;4.85;100.00
77216;BME280;66210;53.282;9.864;2023-12-20T01:49:14;100342.72;;;4.82;100.00
77216;BME280;66210;53.282;9.864;2023-12-20T01:51:42;100341.06;;;4.83;100.00
77216;BME280;66210;53.282;9.864;2023-12-20T01:54:09;100341.75;;;4.80;100.00
77216;BME280;66210;53.282;9.864;2023-12-20T01:56:36;100334.78;;;4.76;100.00
77216;BME280;66210;53.282;9.864;2023-12-20T01:59:03;100330.72;;;4.78;100.00
77216;BME280;66210;53.282;9.864;2023-12-20T02:01:31;100318.59;;;4.72;100.00
77216;BME280;66210;53.282;9.864;2023-12-20T02:03:59;100333.00;;;4.75;100.00
77216;BME280;66210;53.282;9.864;2023-12-20T02:06:29;100328.78;;;4.74;100.00
77216;BME280;66210;53.282;9.864;2023-12-20T02:08:57;100333.00;;;4.75;100.00
77216;BME280;66210;53.282;9.864;2023-12-20T02:11:26;100331.47;;;4.77;100.00
77216;BME280;66210;53.282;9.864;2023-12-20T02:13:53;100332.16;;;4.74;100.00
77216;BME280;66210;53.282;9.864;2023-12-20T02:16:21;100323.91;;;4.77;100.00
77216;BME280;66210;53.282;9.864;2023-12-20T02:18:48;100309.03;;;4.67;100.00
77216;BME280;66210;53.282;9.864;2023-12-20T02:21:15;100324.41;;;4.71;100.00
77216;BME280;66210;53.282;9.864;2023-12-20T02:23:42;100307.38;;;4.67;100.00
77216;BME280;66210;53.282;9.864;2023-12-20T02:26:08;100294.13;;;4.56;100.00
77216;BME280;66210;53.282;9.864;2023-12-20T02:28:35;100307.28;;;4.66;100.00
77216;BME280;66210;53.282;9.864;2023-12-20T02:31:02;100289.28;;;4.59;100.00
77216;BME280;66210;53.282;9.864;2023-12-20T02:33:29;100273.88;;;4.55;100.00
77216;BME280;66210;53.282;9.864;2023-12-20T02:35:56;100286.84;;;4.61;100.00
77216;BME280;66210;53.282;9.864;2023-12-20T02:38:23;100296.34;;;4.65;100.00
77216;BME280;66210;53.282;9.864;2023-12-20T02:40:50;100282.34;;;4.55;100.00
77216;BME280;66210;53.282;9.864;2023-12-20T02:43:16;100299.53;;;4.63;100.00
77216;BME280;66210;53.282;9.864;2023-12-20T02:45:43;100297.31;;;4.67;100.00
77216;BME280;66210;53.282;9.864;2023-12-20T02:48:10;100287.06;;;4.64;100.00
77216;BME280;66210;53.282;9.864;2023-12-20T02:50:37;100299.53;;;4.76;100.00
77216;BME280;66210;53.282;9.864;2023-12-20T02:53:04;100294.41;;;4.74;100.00
77216;BME280;66210;53.282;9.864;2023-12-20T02:55:31;100281.81;;;4.74;100.00
77216;BME280;66210;53.282;9.864;2023-12-20T02:57:57;100285.31;;;4.76;100.00
77216;BME280;66210;53.282;9.864;2023-12-20T03:00:24;100281.13;;;4.77;100.00
77216;BME280;66210;53.282;9.864;2023-12-20T03:02:51;100283.38;;;4.72;100.00
77216;BME280;66210;53.282;9.864;2023-12-20T03:05:18;100271.38;;;4.68;100.00
77216;BME280;66210;53.282;9.864;2023-12-20T03:07:45;100273.13;;;4.69;100.00
77216;BME280;66210;53.282;9.864;2023-12-20T03:10:12;100269.53;;;4.66;100.00
77216;BME280;66210;53.282;9.864;2023-12-20T03:12:49;100267.88;;;4.66;100.00
77216;BME280;66210;53.282;9.864;2023-12-20T03:15:16;100266.94;;;4.64;100.00
77216;BME280;66210;53.282;9.864;2023-12-20T03:17:43;100262.38;;;4.58;100.00
77216;BME280;66210;53.282;9.864;2023-12-20T03:20:11;100248.97;;;4.45;100.00
77216;BME280;66210;53.282;9.864;2023-12-20T03:22:38;100257.25;;;4.57;100.00
77216;BME280;66210;53.282;9.864;2023-12-20T03:25:05;100265.69;;;4.57;100.00
77216;BME280;66210;53.282;9.864;2023-12-20T03:27:31;100259.00;;;4.58;100.00
77216;BME280;66210;53.282;9.864;2023-12-20T03:29:58;100253.88;;;4.56;100.00
77216;BME280;66210;53.282;9.864;2023-12-20T03:32:25;100227.75;;;4.41;100.00
77216;BME280;66210;53.282;9.864;2023-12-20T03:34:52;100254.03;;;4.59;100.00
77216;BME280;66210;53.282;9.864;2023-12-20T03:37:19;100245.56;;;4.57;100.00
77216;BME280;66210;53.282;9.864;2023-12-20T03:39:46;100238.09;;;4.59;100.00
77216;BME280;66210;53.282;9.864;2023-12-20T03:42:13;100238.94;;;4.59;100.00
77216;BME280;66210;53.282;9.864;2023-12-20T03:44:40;100230.53;;;4.59;100.00
77216;BME280;66210;53.282;9.864;2023-12-20T03:47:07;100239.16;;;4.63;100.00
77216;BME280;66210;53.282;9.864;2023-12-20T03:49:34;100208.72;;;4.45;100.00
77216;BME280;66210;53.282;9.864;2023-12-20T03:52:04;100218.38;;;4.52;100.00
77216;BME280;66210;53.282;9.864;2023-12-20T03:54:31;100225.09;;;4.66;100.00
77216;BME280;66210;53.282;9.864;2023-12-20T03:56:58;100236.94;;;4.67;100.00
77216;BME280;66210;53.282;9.864;2023-12-20T03:59:24;100222.31;;;4.62;100.00
77216;BME280;66210;53.282;9.864;2023-12-20T04:01:51;100215.38;;;4.57;100.00
77216;BME280;66210;53.282;9.864;2023-12-20T04:04:18;100230.34;;;4.69;100.00
77216;BME280;66210;53.282;9.864;2023-12-20T04:06:46;100227.94;;;4.71;100.00
77216;BME280;66210;53.282;9.864;2023-12-20T04:09:13;100228.59;;;4.68;100.00
77216;BME280;66210;53.282;9.864;2023-12-20T04:11:39;100215.66;;;4.62;100.00
77216;BME280;66210;53.282;9.864;2023-12-20T04:14:06;100216.00;;;4.68;100.00
77216;BME280;66210;53.282;9.864;2023-12-20T04:16:34;100223.06;;;4.74;100.00
77216;BME280;66210;53.282;9.864;2023-12-20T04:19:01;100188.94;;;4.64;100.00
77216;BME280;66210;53.282;9.864;2023-12-20T04:21:29;100210.66;;;4.77;100.00
77216;BME280;66210;53.282;9.864;2023-12-20T04:23:56;100208.34;;;4.80;100.00
77216;BME280;66210;53.282;9.864;2023-12-20T04:26:23;100199.25;;;4.82;100.00
77216;BME280;66210;53.282;9.864;2023-12-20T04:28:50;100197.66;;;4.84;100.00
77216;BME280;66210;53.282;9.864;2023-12-20T04:31:20;100192.28;;;4.78;100.00
77216;BME280;66210;53.282;9.864;2023-12-20T04:33:47;100202.69;;;4.84;100.00
77216;BME280;66210;53.282;9.864;2023-12-20T04:36:14;100201.06;;;4.85;100.00
77216;BME280;66210;53.282;9.864;2023-12-20T04:38:41;100195.16;;;4.84;100.00
77216;BME280;66210;53.282;9.864;2023-12-20T04:41:08;100180.66;;;4.80;100.00
77216;BME280;66210;53.282;9.864;2023-12-20T04:43:34;100193.88;;;4.91;100.00
77216;BME280;66210;53.282;9.864;2023-12-20T04:46:01;100198.84;;;4.89;100.00
77216;BME280;66210;53.282;9.864;2023-12-20T04:48:28;100186.16;;;4.88;100.00
77216;BME280;66210;53.282;9.864;2023-12-20T04:50:55;100163.03;;;4.80;100.00
77216;BME280;66210;53.282;9.864;2023-12-20T04:53:21;100175.47;;;4.92;100.00
77216;BME280;66210;53.282;9.864;2023-12-20T04:55:49;100172.59;;;4.86;100.00
77216;BME280;66210;53.282;9.864;2023-12-20T04:58:16;100182.34;;;4.94;100.00
77216;BME280;66210;53.282;9.864;2023-12-20T05:00:43;100163.13;;;4.82;100.00
77216;BME280;66210;53.282;9.864;2023-12-20T05:03:10;100181.66;;;4.97;100.00
77216;BME280;66210;53.282;9.864;2023-12-20T05:05:37;100146.41;;;4.82;100.00
77216;BME280;66210;53.282;9.864;2023-12-20T05:08:04;100175.75;;;4.96;100.00
77216;BME280;66210;53.282;9.864;2023-12-20T05:10:31;100172.53;;;4.99;100.00
77216;BME280;66210;53.282;9.864;2023-12-20T05:12:58;100163.53;;;5.03;100.00
77216;BME280;66210;53.282;9.864;2023-12-20T05:15:25;100150.22;;;4.90;100.00
77216;BME280;66210;53.282;9.864;2023-12-20T05:17:51;100168.31;;;4.98;100.00
77216;BME280;66210;53.282;9.864;2023-12-20T05:20:18;100175.31;;;5.04;100.00
77216;BME280;66210;53.282;9.864;2023-12-20T05:22:45;100161.00;;;5.03;100.00
77216;BME280;66210;53.282;9.864;2023-12-20T05:25:12;100170.41;;;5.05;100.00
77216;BME280;66210;53.282;9.864;2023-12-20T05:27:39;100173.69;;;5.04;100.00
77216;BME280;66210;53.282;9.864;2023-12-20T05:30:06;100175.22;;;5.02;100.00
77216;BME280;66210;53.282;9.864;2023-12-20T05:32:33;100169.53;;;5.05;100.00
77216;BME280;66210;53.282;9.864;2023-12-20T05:35:00;100169.44;;;5.03;100.00
77216;BME280;66210;53.282;9.864;2023-12-20T05:37:27;100159.53;;;5.06;100.00
77216;BME280;66210;53.282;9.864;2023-12-20T05:39:54;100166.31;;;5.07;100.00
77216;BME280;66210;53.282;9.864;2023-12-20T05:42:21;100176.56;;;5.10;100.00
77216;BME280;66210;53.282;9.864;2023-12-20T05:44:47;100169.00;;;5.10;100.00
77216;BME280;66210;53.282;9.864;2023-12-20T05:47:16;100172.47;;;5.12;100.00
77216;BME280;66210;53.282;9.864;2023-12-20T05:49:44;100163.28;;;5.13;100.00
77216;BME280;66210;53.282;9.864;2023-12-20T05:52:10;100149.72;;;5.11;100.00
77216;BME280;66210;53.282;9.864;2023-12-20T05:54:37;100154.25;;;5.16;100.00
77216;BME280;66210;53.282;9.864;2023-12-20T05:57:04;100156.78;;;5.16;100.00
77216;BME280;66210;53.282;9.864;2023-12-20T05:59:31;100138.63;;;5.07;100.00
77216;BME280;66210;53.282;9.864;2023-12-20T06:01:58;100154.16;;;5.15;100.00
77216;BME280;66210;53.282;9.864;2023-12-20T06:04:24;100148.25;;;5.14;100.00
77216;BME280;66210;53.282;9.864;2023-12-20T06:06:51;100124.47;;;5.09;100.00
77216;BME280;66210;53.282;9.864;2023-12-20T06:09:18;100133.00;;;5.11;100.00
77216;BME280;66210;53.282;9.864;2023-12-20T06:11:46;100143.66;;;5.22;100.00
77216;BME280;66210;53.282;9.864;2023-12-20T06:14:12;100033.28;;;4.55;100.00
77216;BME280;66210;53.282;9.864;2023-12-20T06:16:39;100148.69;;;5.22;100.00
77216;BME280;66210;53.282;9.864;2023-12-20T06:19:06;100139.56;;;5.24;100.00
77216;BME280;66210;53.282;9.864;2023-12-20T06:21:34;100148.78;;;5.24;100.00
77216;BME280;66210;53.282;9.864;2023-12-20T06:24:03;100145.31;;;5.21;100.00
77216;BME280;66210;53.282;9.864;2023-12-20T06:26:30;100117.63;;;5.07;100.00
77216;BME280;66210;53.282;9.864;2023-12-20T06:28:57;100124.91;;;5.17;100.00
77216;BME280;66210;53.282;9.864;2023-12-20T06:31:24;100131.97;;;5.23;100.00
77216;BME280;66210;53.282;9.864;2023-12-20T06:33:50;100120.94;;;5.20;100.00
77216;BME280;66210;53.282;9.864;2023-12-20T06:36:24;100115.09;;;5.21;100.00
77216;BME280;66210;53.282;9.864;2023-12-20T06:38:51;100113.69;;;5.27;100.00
77216;BME280;66210;53.282;9.864;2023-12-20T06:41:18;100112.78;;;5.25;100.00
77216;BME280;66210;53.282;9.864;2023-12-20T06:43:45;100121.94;;;5.24;100.00
77216;BME280;66210;53.282;9.864;2023-12-20T06:46:16;100106.06;;;5.25;100.00
77216;BME280;66210;53.282;9.864;2023-12-20T06:48:44;100110.41;;;5.28;100.00
77216;BME280;66210;53.282;9.864;2023-12-20T06:51:15;100108.75;;;5.28;100.00
77216;BME280;66210;53.282;9.864;2023-12-20T06:53:43;100106.25;;;5.28;100.00
77216;BME280;66210;53.282;9.864;2023-12-20T06:56:10;100078.00;;;5.19;100.00
77216;BME280;66210;53.282;9.864;2023-12-20T06:58:43;100064.63;;;5.20;100.00
77216;BME280;66210;53.282;9.864;2023-12-20T07:01:12;100052.47;;;5.13;100.00
77216;BME280;66210;53.282;9.864;2023-12-20T07:03:38;100076.16;;;5.31;100.00
77216;BME280;66210;53.282;9.864;2023-12-20T07:06:06;100054.03;;;5.26;100.00
77216;BME280;66210;53.282;9.864;2023-12-20T07:08:33;100071.50;;;5.23;100.00
77216;BME280;66210;53.282;9.864;2023-12-20T07:11:00;100076.97;;;5.30;100.00
77216;BME280;66210;53.282;9.864;2023-12-20T07:13:27;100072.72;;;5.29;100.00
77216;BME280;66210;53.282;9.864;2023-12-20T07:15:54;100080.34;;;5.31;100.00
77216;BME280;66210;53.282;9.864;2023-12-20T07:18:20;100092.25;;;5.33;100.00
77216;BME280;66210;53.282;9.864;2023-12-20T07:20:47;100066.53;;;5.24;100.00
77216;BME280;66210;53.282;9.864;2023-12-20T07:23:15;100063.31;;;5.27;100.00
77216;BME280;66210;53.282;9.864;2023-12-20T07:25:41;100070.53;;;5.35;100.00
77216;BME280;66210;53.282;9.864;2023-12-20T07:28:08;100060.13;;;5.29;100.00
77216;BME280;66210;53.282;9.864;2023-12-20T07:30:35;100070.13;;;5.28;100.00
77216;BME280;66210;53.282;9.864;2023-12-20T07:33:02;100069.41;;;5.30;100.00
77216;BME280;66210;53.282;9.864;2023-12-20T07:35:29;100066.28;;;5.34;100.00
77216;BME280;66210;53.282;9.864;2023-12-20T07:37:56;100074.72;;;5.35;100.00
77216;BME280;66210;53.282;9.864;2023-12-20T07:40:23;100059.44;;;5.32;100.00
77216;BME280;66210;53.282;9.864;2023-12-20T07:42:51;100070.53;;;5.35;100.00
77216;BME280;66210;53.282;9.864;2023-12-20T07:45:17;100055.59;;;5.38;100.00
77216;BME280;66210;53.282;9.864;2023-12-20T07:47:44;100066.63;;;5.40;100.00
77216;BME280;66210;53.282;9.864;2023-12-20T07:50:13;100065.03;;;5.42;100.00
77216;BME280;66210;53.282;9.864;2023-12-20T07:52:44;100062.28;;;5.38;100.00
77216;BME280;66210;53.282;9.864;2023-12-20T07:55:13;100065.69;;;5.38;100.00
77216;BME280;66210;53.282;9.864;2023-12-20T07:57:39;100051.19;;;5.34;100.00
77216;BME280;66210;53.282;9.864;2023-12-20T08:00:07;100047.25;;;5.39;100.00
77216;BME280;66210;53.282;9.864;2023-12-20T08:02:33;100035.19;;;5.34;100.00
77216;BME280;66210;53.282;9.864;2023-12-20T08:05:00;100052.38;;;5.41;100.00
77216;BME280;66210;53.282;9.864;2023-12-20T08:07:27;100036.41;;;5.40;100.00
77216;BME280;66210;53.282;9.864;2023-12-20T08:09:55;100040.06;;;5.31;100.00
77216;BME280;66210;53.282;9.864;2023-12-20T08:12:23;100014.84;;;5.31;100.00
77216;BME280;66210;53.282;9.864;2023-12-20T08:14:50;100031.53;;;5.44;100.00
77216;BME280;66210;53.282;9.864;2023-12-20T08:17:17;100032.03;;;5.38;100.00
77216;BME280;66210;53.282;9.864;2023-12-20T08:19:49;100017.03;;;5.39;100.00
77216;BME280;66210;53.282;9.864;2023-12-20T08:22:16;100010.25;;;5.38;100.00
77216;BME280;66210;53.282;9.864;2023-12-20T08:24:44;100019.88;;;5.46;100.00
77216;BME280;66210;53.282;9.864;2023-12-20T08:27:11;100027.44;;;5.46;100.00
77216;BME280;66210;53.282;9.864;2023-12-20T08:29:37;100006.94;;;5.39;100.00
77216;BME280;66210;53.282;9.864;2023-12-20T08:32:04;100012.22;;;5.44;100.00
77216;BME280;66210;53.282;9.864;2023-12-20T08:34:31;99998.53;;;5.39;100.00
77216;BME280;66210;53.282;9.864;2023-12-20T08:36:58;100018.38;;;5.49;100.00
77216;BME280;66210;53.282;9.864;2023-12-20T08:39:25;100001.69;;;5.51;100.00
77216;BME280;66210;53.282;9.864;2023-12-20T08:41:52;99987.47;;;5.52;100.00
77216;BME280;66210;53.282;9.864;2023-12-20T08:44:19;99995.97;;;5.54;100.00
77216;BME280;66210;53.282;9.864;2023-12-20T08:46:46;99991.97;;;5.57;100.00
77216;BME280;66210;53.282;9.864;2023-12-20T08:49:14;99989.91;;;5.50;100.00
77216;BME280;66210;53.282;9.864;2023-12-20T08:51:41;99997.72;;;5.55;100.00
77216;BME280;66210;53.282;9.864;2023-12-20T08:54:09;99977.63;;;5.56;100.00
77216;BME280;66210;53.282;9.864;2023-12-20T08:56:35;99979.22;;;5.54;100.00
77216;BME280;66210;53.282;9.864;2023-12-20T08:59:03;100004.72;;;5.60;100.00
77216;BME280;66210;53.282;9.864;2023-12-20T09:01:30;99993.88;;;5.61;100.00
77216;BME280;66210;53.282;9.864;2023-12-20T09:03:57;99968.28;;;5.54;100.00
77216;BME280;66210;53.282;9.864;2023-12-20T09:06:24;99957.47;;;5.56;100.00
77216;BME280;66210;53.282;9.864;2023-12-20T09:08:51;99963.38;;;5.57;100.00
77216;BME280;66210;53.282;9.864;2023-12-20T09:11:18;99955.50;;;5.51;100.00
77216;BME280;66210;53.282;9.864;2023-12-20T09:13:45;99952.50;;;5.58;100.00
77216;BME280;66210;53.282;9.864;2023-12-20T09:16:12;99961.81;;;5.59;100.00
77216;BME280;66210;53.282;9.864;2023-12-20T09:18:40;99931.38;;;5.56;100.00
77216;BME280;66210;53.282;9.864;2023-12-20T09:21:07;99930.63;;;5.57;100.00
77216;BME280;66210;53.282;9.864;2023-12-20T09:23:33;99932.34;;;5.58;100.00
77216;BME280;66210;53.282;9.864;2023-12-20T09:26:00;99947.69;;;5.62;100.00
77216;BME280;66210;53.282;9.864;2023-12-20T09:28:27;99910.00;;;5.48;100.00
77216;BME280;66210;53.282;9.864;2023-12-20T09:30:54;99947.56;;;5.59;100.00
77216;BME280;66210;53.282;9.864;2023-12-20T09:33:22;99951.78;;;5.60;100.00
77216;BME280;66210;53.282;9.864;2023-12-20T09:35:48;99952.75;;;5.62;100.00
77216;BME280;66210;53.282;9.864;2023-12-20T09:38:15;99992.06;;;5.75;100.00
77216;BME280;66210;53.282;9.864;2023-12-20T09:40:44;99997.22;;;5.77;100.00
77216;BME280;66210;53.282;9.864;2023-12-20T09:43:14;100012.00;;;5.71;100.00
77216;BME280;66210;53.282;9.864;2023-12-20T09:45:41;100033.91;;;5.72;100.00
77216;BME280;66210;53.282;9.864;2023-12-20T09:48:12;100049.69;;;5.69;100.00
77216;BME280;66210;53.282;9.864;2023-12-20T09:50:41;100020.25;;;5.37;100.00
77216;BME280;66210;53.282;9.864;2023-12-20T09:53:15;100014.25;;;5.20;100.00
77216;BME280;66210;53.282;9.864;2023-12-20T09:55:42;100010.03;;;5.04;100.00
77216;BME280;66210;53.282;9.864;2023-12-20T09:58:08;99983.13;;;4.88;100.00
77216;BME280;66210;53.282;9.864;2023-12-20T10:00:35;99998.91;;;4.86;100.00
77216;BME280;66210;53.282;9.864;2023-12-20T10:03:03;100002.03;;;4.82;100.00
77216;BME280;66210;53.282;9.864;2023-12-20T10:05:32;99999.25;;;4.77;100.00
77216;BME280;66210;53.282;9.864;2023-12-20T10:08:00;100006.38;;;4.69;100.00
77216;BME280;66210;53.282;9.864;2023-12-20T10:10:28;100019.50;;;4.78;100.00
77216;BME280;66210;53.282;9.864;2023-12-20T10:13:11;99995.53;;;4.70;100.00
77216;BME280;66210;53.282;9.864;2023-12-20T10:15:39;100003.44;;;4.76;100.00
77216;BME280;66210;53.282;9.864;2023-12-20T10:18:07;100002.56;;;4.76;100.00
77216;BME280;66210;53.282;9.864;2023-12-20T10:20:35;99997.88;;;4.67;100.00
77216;BME280;66210;53.282;9.864;2023-12-20T10:23:02;100016.88;;;4.77;100.00
77216;BME280;66210;53.282;9.864;2023-12-20T10:25:29;100020.34;;;4.79;100.00
77216;BME280;66210;53.282;9.864;2023-12-20T10:28:16;100023.56;;;4.76;100.00
77216;BME280;66210;53.282;9.864;2023-12-20T10:30:47;100011.84;;;4.77;100.00
77216;BME280;66210;53.282;9.864;2023-12-20T10:33:24;99987.91;;;4.69;100.00
77216;BME280;66210;53.282;9.864;2023-12-20T10:35:52;100002.03;;;4.82;100.00
77216;BME280;66210;53.282;9.864;2023-12-20T10:38:19;100014.88;;;4.86;100.00
77216;BME280;66210;53.282;9.864;2023-12-20T10:40:46;100015.16;;;4.91;100.00
77216;BME280;66210;53.282;9.864;2023-12-20T10:43:14;100008.38;;;4.90;100.00
77216;BME280;66210;53.282;9.864;2023-12-20T10:45:42;100004.06;;;4.87;100.00
77216;BME280;66210;53.282;9.864;2023-12-20T10:48:12;100004.41;;;4.93;100.00
77216;BME280;66210;53.282;9.864;2023-12-20T10:50:40;99992.13;;;4.99;100.00
77216;BME280;66210;53.282;9.864;2023-12-20T10:53:07;99973.00;;;4.87;100.00
77216;BME280;66210;53.282;9.864;2023-12-20T10:55:34;99980.78;;;4.91;100.00
77216;BME280;66210;53.282;9.864;2023-12-20T10:58:03;99988.66;;;4.97;100.00
77216;BME280;66210;53.282;9.864;2023-12-20T11:00:39;99989.03;;;5.04;100.00
77216;BME280;66210;53.282;9.864;2023-12-20T11:03:09;99984.28;;;4.93;100.00
77216;BME280;66210;53.282;9.864;2023-12-20T11:05:59;99983.81;;;5.00;100.00
77216;BME280;66210;53.282;9.864;2023-12-20T11:08:35;99978.00;;;5.02;100.00
77216;BME280;66210;53.282;9.864;2023-12-20T11:11:23;99987.03;;;4.98;100.00
77216;BME280;66210;53.282;9.864;2023-12-20T11:14:00;99975.06;;;4.94;100.00
77216;BME280;66210;53.282;9.864;2023-12-20T11:16:31;99989.81;;;5.03;100.00
77216;BME280;66210;53.282;9.864;2023-12-20T11:19:14;99985.53;;;5.02;100.00
77216;BME280;66210;53.282;9.864;2023-12-20T11:21:41;99972.34;;;5.06;100.00
77216;BME280;66210;53.282;9.864;2023-12-20T11:24:09;99971.66;;;5.08;100.00
77216;BME280;66210;53.282;9.864;2023-12-20T11:26:36;99978.19;;;5.05;100.00
77216;BME280;66210;53.282;9.864;2023-12-20T11:34:59;99969.38;;;5.13;100.00
77216;BME280;66210;53.282;9.864;2023-12-20T11:37:30;99953.16;;;5.08;100.00
77216;BME280;66210;53.282;9.864;2023-12-20T11:40:02;99959.56;;;5.17;100.00
77216;BME280;66210;53.282;9.864;2023-12-20T11:42:33;99968.00;;;5.18;100.00
77216;BME280;66210;53.282;9.864;2023-12-20T11:45:04;99964.59;;;5.17;100.00
77216;BME280;66210;53.282;9.864;2023-12-20T11:47:33;99956.88;;;5.14;100.00
77216;BME280;66210;53.282;9.864;2023-12-20T11:50:01;99972.34;;;5.20;100.00
77216;BME280;66210;53.282;9.864;2023-12-20T11:52:30;99965.91;;;5.26;100.00
77216;BME280;66210;53.282;9.864;2023-12-20T11:54:57;99960.34;;;5.16;100.00
77216;BME280;66210;53.282;9.864;2023-12-20T11:57:25;99971.03;;;5.27;100.00
77216;BME280;66210;53.282;9.864;2023-12-20T11:59:54;99948.88;;;5.21;100.00
77216;BME280;66210;53.282;9.864;2023-12-20T12:02:21;99970.72;;;5.37;100.00
77216;BME280;66210;53.282;9.864;2023-12-20T12:04:50;99965.53;;;5.34;100.00
77216;BME280;66210;53.282;9.864;2023-12-20T12:07:21;99964.47;;;5.31;100.00
77216;BME280;66210;53.282;9.864;2023-12-20T12:09:48;99961.44;;;5.36;100.00
77216;BME280;66210;53.282;9.864;2023-12-20T12:12:15;99964.13;;;5.39;100.00
77216;BME280;66210;53.282;9.864;2023-12-20T12:14:42;99968.78;;;5.48;100.00
77216;BME280;66210;53.282;9.864;2023-12-20T12:17:12;99978.72;;;5.45;100.00
77216;BME280;66210;53.282;9.864;2023-12-20T12:19:40;99967.13;;;5.49;100.00
77216;BME280;66210;53.282;9.864;2023-12-20T12:24:42;99984.25;;;5.54;100.00
77216;BME280;66210;53.282;9.864;2023-12-20T12:27:09;99990.84;;;5.52;98.67
77216;BME280;66210;53.282;9.864;2023-12-20T12:29:37;99964.81;;;5.37;95.10
77216;BME280;66210;53.282;9.864;2023-12-20T12:32:08;99974.91;;;5.37;95.32
77216;BME280;66210;53.282;9.864;2023-12-20T12:34:36;99974.31;;;5.26;93.89
77216;BME280;66210;53.282;9.864;2023-12-20T12:37:06;99961.69;;;5.10;94.37
77216;BME280;66210;53.282;9.864;2023-12-20T12:39:33;99970.25;;;5.13;95.72
77216;BME280;66210;53.282;9.864;2023-12-20T12:42:00;99961.78;;;4.96;95.94
77216;BME280;66210;53.282;9.864;2023-12-20T12:44:27;99974.88;;;4.91;96.49
77216;BME280;66210;53.282;9.864;2023-12-20T12:46:54;99974.63;;;4.86;97.28
77216;BME280;66210;53.282;9.864;2023-12-20T12:49:21;99970.22;;;4.82;97.09
77216;BME280;66210;53.282;9.864;2023-12-20T12:51:51;99969.00;;;4.75;96.41
77216;BME280;66210;53.282;9.864;2023-12-20T12:54:19;99973.78;;;4.71;98.01
77216;BME280;66210;53.282;9.864;2023-12-20T12:56:47;99961.53;;;4.62;98.59
77216;BME280;66210;53.282;9.864;2023-12-20T12:59:14;99933.06;;;4.48;98.56
77216;BME280;66210;53.282;9.864;2023-12-20T13:01:41;99965.16;;;4.67;99.32
77216;BME280;66210;53.282;9.864;2023-12-20T13:04:08;99973.69;;;4.69;99.76